sensor_id;sensor_type;location;lat;lon;timestamp;pressure;altitude;pressure_sealevel;temperature;humidity
55191;BME280;41070;50.360;18.742;2023-02-19T00:01:51;98411.38;;;5.50;98.75
55191;BME280;41070;50.360;18.742;2023-02-19T00:04:19;98414.59;;;5.50;98.47
55191;BME280;41070;50.360;18.742;2023-02-19T00:06:46;98419.16;;;5.49;98.67
55191;BME280;41070;50.360;18.742;2023-02-19T00:09:15;98422.27;;;5.47;98.91
55191;BME280;41070;50.360;18.742;2023-02-19T00:11:42;98428.48;;;5.47;99.26
55191;BME280;41070;50.360;18.742;2023-02-19T00:14:10;98428.30;;;5.45;99.62
55191;BME280;41070;50.360;18.742;2023-02-19T00:16:39;98419.97;;;5.43;99.85
55191;BME280;41070;50.360;18.742;2023-02-19T00:19:07;98422.09;;;5.41;100.00
55191;BME280;41070;50.360;18.742;2023-02-19T00:21:34;98420.34;;;5.38;100.00
55191;BME280;41070;50.360;18.742;2023-02-19T00:24:01;98423.98;;;5.36;100.00
55191;BME280;41070;50.360;18.742;2023-02-19T00:26:28;98422.05;;;5.33;100.00
55191;BME280;41070;50.360;18.742;2023-02-19T00:28:55;98425.35;;;5.31;100.00
55191;BME280;41070;50.360;18.742;2023-02-19T00:31:30;98428.08;;;5.31;100.00
55191;BME280;41070;50.360;18.742;2023-02-19T00:33:59;98429.56;;;5.31;100.00
55191;BME280;41070;50.360;18.742;2023-02-19T00:36:26;98427.29;;;5.30;99.97
55191;BME280;41070;50.360;18.742;2023-02-19T00:38:53;98423.23;;;5.29;99.99
55191;BME280;41070;50.360;18.742;2023-02-19T00:41:21;98425.45;;;5.30;99.91
55191;BME280;41070;50.360;18.742;2023-02-19T00:43:54;98426.67;;;5.30;99.92
55191;BME280;41070;50.360;18.742;2023-02-19T00:48:51;98427.81;;;5.30;99.97
55191;BME280;41070;50.360;18.742;2023-02-19T00:51:18;98431.88;;;5.31;99.96
55191;BME280;41070;50.360;18.742;2023-02-19T00:53:45;98435.16;;;5.31;99.92
55191;BME280;41070;50.360;18.742;2023-02-19T00:56:12;98432.27;;;5.33;100.00
55191;BME280;41070;50.360;18.742;2023-02-19T00:58:38;98433.85;;;5.34;100.00
55191;BME280;41070;50.360;18.742;2023-02-19T01:01:05;98433.26;;;5.35;99.99
55191;BME280;41070;50.360;18.742;2023-02-19T01:03:33;98431.45;;;5.35;100.00
55191;BME280;41070;50.360;18.742;2023-02-19T01:06:00;98429.77;;;5.37;100.00
55191;BME280;41070;50.360;18.742;2023-02-19T01:08:27;98429.77;;;5.38;100.00
55191;BME280;41070;50.360;18.742;2023-02-19T01:10:56;98429.39;;;5.40;100.00
55191;BME280;41070;50.360;18.742;2023-02-19T01:13:22;98428.17;;;5.42;99.99
55191;BME280;41070;50.360;18.742;2023-02-19T01:15:49;98420.98;;;5.42;100.00
55191;BME280;41070;50.360;18.742;2023-02-19T01:18:15;98420.65;;;5.42;100.00
55191;BME280;41070;50.360;18.742;2023-02-19T01:20:43;98411.31;;;5.43;100.00
55191;BME280;41070;50.360;18.742;2023-02-19T01:23:11;98409.10;;;5.44;100.00
55191;BME280;41070;50.360;18.742;2023-02-19T01:25:38;98406.51;;;5.46;100.00
55191;BME280;41070;50.360;18.742;2023-02-19T01:28:06;98404.23;;;5.45;100.00
55191;BME280;41070;50.360;18.742;2023-02-19T01:30:38;98400.15;;;5.44;100.00
55191;BME280;41070;50.360;18.742;2023-02-19T01:33:09;98399.05;;;5.45;100.00
55191;BME280;41070;50.360;18.742;2023-02-19T01:35:42;98397.64;;;5.44;100.00
55191;BME280;41070;50.360;18.742;2023-02-19T01:38:08;98391.39;;;5.42;100.00
55191;BME280;41070;50.360;18.742;2023-02-19T01:40:34;98389.92;;;5.39;100.00
55191;BME280;41070;50.360;18.742;2023-02-19T01:43:01;98386.69;;;5.38;100.00
55191;BME280;41070;50.360;18.742;2023-02-19T01:45:30;98381.72;;;5.35;100.00
55191;BME280;41070;50.360;18.742;2023-02-19T01:48:22;98381.86;;;5.32;100.00
55191;BME280;41070;50.360;18.742;2023-02-19T01:50:59;98379.39;;;5.30;100.00
55191;BME280;41070;50.360;18.742;2023-02-19T01:53:30;98371.83;;;5.27;100.00
55191;BME280;41070;50.360;18.742;2023-02-19T01:55:59;98367.88;;;5.25;100.00
55191;BME280;41070;50.360;18.742;2023-02-19T01:58:29;98366.02;;;5.23;100.00
55191;BME280;41070;50.360;18.742;2023-02-19T02:00:58;98366.30;;;5.21;100.00
55191;BME280;41070;50.360;18.742;2023-02-19T02:03:24;98359.70;;;5.19;100.00
55191;BME280;41070;50.360;18.742;2023-02-19T02:08:36;98353.26;;;5.17;100.00
55191;BME280;41070;50.360;18.742;2023-02-19T02:11:20;98350.27;;;5.16;100.00
55191;BME280;41070;50.360;18.742;2023-02-19T02:13:47;98347.33;;;5.15;100.00
55191;BME280;41070;50.360;18.742;2023-02-19T02:22:31;98346.30;;;5.10;100.00
55191;BME280;41070;50.360;18.742;2023-02-19T02:25:48;98341.39;;;5.09;100.00
55191;BME280;41070;50.360;18.742;2023-02-19T02:28:16;98338.94;;;5.08;100.00
55191;BME280;41070;50.360;18.742;2023-02-19T02:30:58;98334.30;;;5.07;100.00
55191;BME280;41070;50.360;18.742;2023-02-19T02:34:06;98334.28;;;5.06;100.00
55191;BME280;41070;50.360;18.742;2023-02-19T02:36:37;98332.96;;;5.04;100.00
55191;BME280;41070;50.360;18.742;2023-02-19T02:39:09;98336.98;;;5.02;100.00
55191;BME280;41070;50.360;18.742;2023-02-19T02:41:41;98336.23;;;4.99;100.00
55191;BME280;41070;50.360;18.742;2023-02-19T02:44:09;98327.71;;;4.96;100.00
55191;BME280;41070;50.360;18.742;2023-02-19T02:46:40;98323.23;;;4.94;100.00
55191;BME280;41070;50.360;18.742;2023-02-19T02:49:20;98321.23;;;4.90;100.00
55191;BME280;41070;50.360;18.742;2023-02-19T02:51:51;98313.77;;;4.87;100.00
55191;BME280;41070;50.360;18.742;2023-02-19T02:54:28;98313.95;;;4.85;100.00
55191;BME280;41070;50.360;18.742;2023-02-19T02:57:16;98312.83;;;4.84;100.00
55191;BME280;41070;50.360;18.742;2023-02-19T02:59:44;98315.36;;;4.82;100.00
55191;BME280;41070;50.360;18.742;2023-02-19T03:02:17;98311.17;;;4.82;100.00
55191;BME280;41070;50.360;18.742;2023-02-19T03:05:05;98303.13;;;4.82;100.00
55191;BME280;41070;50.360;18.742;2023-02-19T03:07:54;98308.36;;;4.82;100.00
55191;BME280;41070;50.360;18.742;2023-02-19T03:10:35;98306.02;;;4.82;100.00
55191;BME280;41070;50.360;18.742;2023-02-19T03:13:08;98305.91;;;4.83;100.00
55191;BME280;41070;50.360;18.742;2023-02-19T03:16:01;98310.17;;;4.82;100.00
55191;BME280;41070;50.360;18.742;2023-02-19T03:18:52;98309.80;;;4.82;100.00
55191;BME280;41070;50.360;18.742;2023-02-19T03:21:39;98306.38;;;4.81;100.00
55191;BME280;41070;50.360;18.742;2023-02-19T03:24:09;98305.04;;;4.80;100.00
55191;BME280;41070;50.360;18.742;2023-02-19T03:26:51;98306.29;;;4.79;100.00
55191;BME280;41070;50.360;18.742;2023-02-19T03:29:27;98305.76;;;4.79;100.00
55191;BME280;41070;50.360;18.742;2023-02-19T03:31:57;98305.51;;;4.79;100.00
55191;BME280;41070;50.360;18.742;2023-02-19T03:34:47;98306.52;;;4.78;100.00
55191;BME280;41070;50.360;18.742;2023-02-19T03:39:54;98310.79;;;4.77;100.00
55191;BME280;41070;50.360;18.742;2023-02-19T03:42:35;98308.39;;;4.78;100.00
55191;BME280;41070;50.360;18.742;2023-02-19T03:48:22;98296.92;;;4.78;100.00
55191;BME280;41070;50.360;18.742;2023-02-19T03:51:01;98295.74;;;4.81;100.00
55191;BME280;41070;50.360;18.742;2023-02-19T03:54:04;98294.95;;;4.84;100.00
55191;BME280;41070;50.360;18.742;2023-02-19T03:57:13;98295.45;;;4.86;100.00
55191;BME280;41070;50.360;18.742;2023-02-19T04:02:44;98282.89;;;4.93;100.00
55191;BME280;41070;50.360;18.742;2023-02-19T04:05:25;98282.87;;;4.98;100.00
55191;BME280;41070;50.360;18.742;2023-02-19T04:07:56;98283.98;;;5.01;100.00
55191;BME280;41070;50.360;18.742;2023-02-19T04:10:25;98279.40;;;5.04;100.00
55191;BME280;41070;50.360;18.742;2023-02-19T04:12:59;98276.03;;;5.06;100.00
55191;BME280;41070;50.360;18.742;2023-02-19T04:15:30;98270.27;;;5.08;100.00
55191;BME280;41070;50.360;18.742;2023-02-19T04:18:31;98275.15;;;5.10;100.00
55191;BME280;41070;50.360;18.742;2023-02-19T04:21:01;98267.19;;;5.12;100.00
55191;BME280;41070;50.360;18.742;2023-02-19T04:23:32;98269.90;;;5.14;100.00
55191;BME280;41070;50.360;18.742;2023-02-19T04:26:02;98260.73;;;5.16;100.00
55191;BME280;41070;50.360;18.742;2023-02-19T04:28:29;98261.11;;;5.17;100.00
55191;BME280;41070;50.360;18.742;2023-02-19T04:30:55;98258.71;;;5.18;100.00
55191;BME280;41070;50.360;18.742;2023-02-19T04:33:22;98262.91;;;5.19;100.00
55191;BME280;41070;50.360;18.742;2023-02-19T04:35:48;98253.11;;;5.18;100.00
55191;BME280;41070;50.360;18.742;2023-02-19T04:38:14;98251.20;;;5.19;100.00
55191;BME280;41070;50.360;18.742;2023-02-19T04:40:41;98241.32;;;5.19;100.00
55191;BME280;41070;50.360;18.742;2023-02-19T04:43:07;98237.13;;;5.19;100.00
55191;BME280;41070;50.360;18.742;2023-02-19T04:45:36;98233.95;;;5.18;100.00
55191;BME280;41070;50.360;18.742;2023-02-19T04:48:03;98226.05;;;5.20;100.00
55191;BME280;41070;50.360;18.742;2023-02-19T04:50:29;98219.75;;;5.21;100.00
55191;BME280;41070;50.360;18.742;2023-02-19T04:52:56;98209.45;;;5.22;100.00
55191;BME280;41070;50.360;18.742;2023-02-19T04:55:22;98208.73;;;5.23;100.00
55191;BME280;41070;50.360;18.742;2023-02-19T04:57:49;98206.61;;;5.22;100.00
55191;BME280;41070;50.360;18.742;2023-02-19T05:00:15;98202.77;;;5.23;100.00
55191;BME280;41070;50.360;18.742;2023-02-19T05:02:41;98198.40;;;5.22;100.00
55191;BME280;41070;50.360;18.742;2023-02-19T05:05:07;98198.26;;;5.22;100.00
55191;BME280;41070;50.360;18.742;2023-02-19T05:07:34;98194.20;;;5.23;100.00
55191;BME280;41070;50.360;18.742;2023-02-19T05:10:00;98196.15;;;5.24;100.00
55191;BME280;41070;50.360;18.742;2023-02-19T05:12:28;98201.52;;;5.26;100.00
55191;BME280;41070;50.360;18.742;2023-02-19T05:14:54;98208.05;;;5.27;100.00
55191;BME280;41070;50.360;18.742;2023-02-19T05:17:21;98211.14;;;5.29;100.00
55191;BME280;41070;50.360;18.742;2023-02-19T05:19:47;98215.80;;;5.30;100.00
55191;BME280;41070;50.360;18.742;2023-02-19T05:22:13;98217.73;;;5.29;100.00
55191;BME280;41070;50.360;18.742;2023-02-19T05:24:40;98203.36;;;5.28;100.00
55191;BME280;41070;50.360;18.742;2023-02-19T05:27:06;98202.29;;;5.28;100.00
55191;BME280;41070;50.360;18.742;2023-02-19T05:29:32;98195.80;;;5.27;100.00
55191;BME280;41070;50.360;18.742;2023-02-19T05:31:58;98197.45;;;5.27;100.00
55191;BME280;41070;50.360;18.742;2023-02-19T05:34:25;98199.83;;;5.27;100.00
55191;BME280;41070;50.360;18.742;2023-02-19T05:36:51;98194.59;;;5.27;100.00
55191;BME280;41070;50.360;18.742;2023-02-19T05:39:17;98195.05;;;5.27;100.00
55191;BME280;41070;50.360;18.742;2023-02-19T05:41:44;98197.36;;;5.28;100.00
55191;BME280;41070;50.360;18.742;2023-02-19T05:44:10;98199.27;;;5.28;100.00
55191;BME280;41070;50.360;18.742;2023-02-19T05:46:36;98195.15;;;5.27;100.00
55191;BME280;41070;50.360;18.742;2023-02-19T05:49:03;98195.70;;;5.28;100.00
55191;BME280;41070;50.360;18.742;2023-02-19T05:51:29;98194.45;;;5.29;100.00
55191;BME280;41070;50.360;18.742;2023-02-19T05:53:55;98196.64;;;5.30;100.00
55191;BME280;41070;50.360;18.742;2023-02-19T05:58:55;98192.27;;;5.33;100.00
55191;BME280;41070;50.360;18.742;2023-02-19T06:01:24;98196.47;;;5.32;100.00
55191;BME280;41070;50.360;18.742;2023-02-19T06:03:50;98199.88;;;5.32;100.00
55191;BME280;41070;50.360;18.742;2023-02-19T06:06:18;98198.63;;;5.31;100.00
55191;BME280;41070;50.360;18.742;2023-02-19T06:08:45;98194.73;;;5.30;100.00
55191;BME280;41070;50.360;18.742;2023-02-19T06:11:12;98197.67;;;5.30;100.00
55191;BME280;41070;50.360;18.742;2023-02-19T06:13:39;98194.55;;;5.29;100.00
55191;BME280;41070;50.360;18.742;2023-02-19T06:16:06;98193.70;;;5.29;100.00
55191;BME280;41070;50.360;18.742;2023-02-19T06:18:33;98191.89;;;5.29;100.00
55191;BME280;41070;50.360;18.742;2023-02-19T06:21:03;98192.60;;;5.30;100.00
55191;BME280;41070;50.360;18.742;2023-02-19T06:23:49;98188.40;;;5.29;100.00
55191;BME280;41070;50.360;18.742;2023-02-19T06:26:20;98187.31;;;5.30;100.00
55191;BME280;41070;50.360;18.742;2023-02-19T06:28:49;98185.23;;;5.32;100.00
55191;BME280;41070;50.360;18.742;2023-02-19T06:31:17;98182.67;;;5.34;100.00
55191;BME280;41070;50.360;18.742;2023-02-19T06:33:51;98189.82;;;5.36;100.00
55191;BME280;41070;50.360;18.742;2023-02-19T06:36:23;98191.16;;;5.38;100.00
55191;BME280;41070;50.360;18.742;2023-02-19T06:38:50;98188.69;;;5.38;100.00
55191;BME280;41070;50.360;18.742;2023-02-19T06:41:16;98185.59;;;5.41;100.00
55191;BME280;41070;50.360;18.742;2023-02-19T06:43:43;98182.80;;;5.43;100.00
55191;BME280;41070;50.360;18.742;2023-02-19T06:46:10;98179.55;;;5.45;100.00
55191;BME280;41070;50.360;18.742;2023-02-19T06:48:38;98176.92;;;5.45;100.00
55191;BME280;41070;50.360;18.742;2023-02-19T06:51:05;98176.30;;;5.47;100.00
55191;BME280;41070;50.360;18.742;2023-02-19T06:53:32;98182.06;;;5.49;100.00
55191;BME280;41070;50.360;18.742;2023-02-19T06:56:06;98181.21;;;5.50;100.00
55191;BME280;41070;50.360;18.742;2023-02-19T06:58:33;98180.52;;;5.54;100.00
55191;BME280;41070;50.360;18.742;2023-02-19T07:01:00;98178.66;;;5.57;100.00
55191;BME280;41070;50.360;18.742;2023-02-19T07:03:26;98179.30;;;5.61;100.00
55191;BME280;41070;50.360;18.742;2023-02-19T07:05:52;98175.86;;;5.65;100.00
55191;BME280;41070;50.360;18.742;2023-02-19T07:08:19;98179.28;;;5.66;100.00
55191;BME280;41070;50.360;18.742;2023-02-19T07:10:53;98176.91;;;5.68;100.00
55191;BME280;41070;50.360;18.742;2023-02-19T07:13:20;98178.38;;;5.71;100.00
55191;BME280;41070;50.360;18.742;2023-02-19T07:15:46;98178.31;;;5.71;100.00
55191;BME280;41070;50.360;18.742;2023-02-19T07:18:13;98182.70;;;5.69;100.00
55191;BME280;41070;50.360;18.742;2023-02-19T07:20:39;98183.76;;;5.69;100.00
55191;BME280;41070;50.360;18.742;2023-02-19T07:23:05;98184.42;;;5.67;100.00
55191;BME280;41070;50.360;18.742;2023-02-19T07:25:32;98180.52;;;5.66;100.00
55191;BME280;41070;50.360;18.742;2023-02-19T07:27:58;98182.31;;;5.65;100.00
55191;BME280;41070;50.360;18.742;2023-02-19T07:30:24;98175.45;;;5.64;100.00
55191;BME280;41070;50.360;18.742;2023-02-19T07:32:50;98167.80;;;5.64;100.00
55191;BME280;41070;50.360;18.742;2023-02-19T07:35:17;98167.82;;;5.66;100.00
55191;BME280;41070;50.360;18.742;2023-02-19T07:37:43;98164.52;;;5.68;100.00
55191;BME280;41070;50.360;18.742;2023-02-19T07:40:09;98162.92;;;5.69;100.00
55191;BME280;41070;50.360;18.742;2023-02-19T07:42:36;98168.00;;;5.71;100.00
55191;BME280;41070;50.360;18.742;2023-02-19T07:45:03;98161.79;;;5.73;100.00
55191;BME280;41070;50.360;18.742;2023-02-19T07:47:29;98154.80;;;5.79;100.00
55191;BME280;41070;50.360;18.742;2023-02-19T07:49:56;98150.86;;;5.85;100.00
55191;BME280;41070;50.360;18.742;2023-02-19T07:52:22;98150.13;;;5.90;100.00
55191;BME280;41070;50.360;18.742;2023-02-19T07:54:48;98148.23;;;5.90;100.00
55191;BME280;41070;50.360;18.742;2023-02-19T07:57:15;98149.76;;;5.90;100.00
55191;BME280;41070;50.360;18.742;2023-02-19T07:59:41;98150.61;;;5.88;100.00
55191;BME280;41070;50.360;18.742;2023-02-19T08:02:15;98153.39;;;5.90;100.00
55191;BME280;41070;50.360;18.742;2023-02-19T08:05:01;98151.27;;;5.90;100.00
55191;BME280;41070;50.360;18.742;2023-02-19T08:07:35;98156.64;;;5.89;100.00
55191;BME280;41070;50.360;18.742;2023-02-19T08:10:03;98160.64;;;5.89;100.00
55191;BME280;41070;50.360;18.742;2023-02-19T08:12:57;98165.67;;;5.88;100.00
55191;BME280;41070;50.360;18.742;2023-02-19T08:15:43;98164.95;;;5.86;100.00
55191;BME280;41070;50.360;18.742;2023-02-19T08:18:10;98161.91;;;5.85;100.00
55191;BME280;41070;50.360;18.742;2023-02-19T08:20:37;98163.27;;;5.84;100.00
55191;BME280;41070;50.360;18.742;2023-02-19T08:23:04;98163.23;;;5.85;100.00
55191;BME280;41070;50.360;18.742;2023-02-19T08:25:31;98161.59;;;5.86;100.00
55191;BME280;41070;50.360;18.742;2023-02-19T08:27:58;98165.81;;;5.87;100.00
55191;BME280;41070;50.360;18.742;2023-02-19T08:30:26;98167.52;;;5.88;100.00
55191;BME280;41070;50.360;18.742;2023-02-19T08:32:53;98168.55;;;5.88;100.00
55191;BME280;41070;50.360;18.742;2023-02-19T08:35:19;98170.87;;;5.86;100.00
55191;BME280;41070;50.360;18.742;2023-02-19T08:37:46;98172.13;;;5.86;100.00
55191;BME280;41070;50.360;18.742;2023-02-19T08:40:12;98172.48;;;5.83;100.00
55191;BME280;41070;50.360;18.742;2023-02-19T08:42:39;98173.80;;;5.80;100.00
55191;BME280;41070;50.360;18.742;2023-02-19T08:45:05;98173.31;;;5.79;100.00
55191;BME280;41070;50.360;18.742;2023-02-19T08:47:33;98173.29;;;5.78;100.00
55191;BME280;41070;50.360;18.742;2023-02-19T08:50:00;98168.48;;;5.78;100.00
55191;BME280;41070;50.360;18.742;2023-02-19T08:52:27;98173.54;;;5.77;100.00
55191;BME280;41070;50.360;18.742;2023-02-19T08:54:53;98179.89;;;5.78;100.00
55191;BME280;41070;50.360;18.742;2023-02-19T08:57:20;98179.48;;;5.78;100.00
55191;BME280;41070;50.360;18.742;2023-02-19T08:59:46;98180.36;;;5.77;100.00
55191;BME280;41070;50.360;18.742;2023-02-19T09:02:12;98183.54;;;5.75;100.00
55191;BME280;41070;50.360;18.742;2023-02-19T09:04:39;98186.09;;;5.74;100.00
55191;BME280;41070;50.360;18.742;2023-02-19T09:07:05;98191.55;;;5.70;100.00
55191;BME280;41070;50.360;18.742;2023-02-19T09:09:36;98189.38;;;5.65;100.00
55191;BME280;41070;50.360;18.742;2023-02-19T09:12:06;98191.16;;;5.61;100.00
55191;BME280;41070;50.360;18.742;2023-02-19T09:14:33;98196.15;;;5.56;100.00
55191;BME280;41070;50.360;18.742;2023-02-19T09:17:00;98203.31;;;5.51;100.00
55191;BME280;41070;50.360;18.742;2023-02-19T09:19:27;98207.20;;;5.48;100.00
55191;BME280;41070;50.360;18.742;2023-02-19T09:21:54;98206.65;;;5.45;100.00
55191;BME280;41070;50.360;18.742;2023-02-19T09:24:20;98213.89;;;5.45;100.00
55191;BME280;41070;50.360;18.742;2023-02-19T09:26:51;98216.66;;;5.42;100.00
55191;BME280;41070;50.360;18.742;2023-02-19T09:29:18;98221.73;;;5.42;100.00
55191;BME280;41070;50.360;18.742;2023-02-19T09:31:45;98220.04;;;5.43;100.00
55191;BME280;41070;50.360;18.742;2023-02-19T09:34:11;98220.66;;;5.47;100.00
55191;BME280;41070;50.360;18.742;2023-02-19T09:36:41;98226.45;;;5.50;100.00
55191;BME280;41070;50.360;18.742;2023-02-19T09:39:09;98226.01;;;5.52;100.00
55191;BME280;41070;50.360;18.742;2023-02-19T09:41:48;98219.17;;;5.53;100.00
55191;BME280;41070;50.360;18.742;2023-02-19T09:44:35;98224.25;;;5.53;100.00
55191;BME280;41070;50.360;18.742;2023-02-19T09:47:08;98226.75;;;5.54;100.00
55191;BME280;41070;50.360;18.742;2023-02-19T09:49:42;98228.42;;;5.51;100.00
55191;BME280;41070;50.360;18.742;2023-02-19T09:52:22;98242.17;;;5.46;100.00
55191;BME280;41070;50.360;18.742;2023-02-19T09:54:50;98259.12;;;5.33;100.00
55191;BME280;41070;50.360;18.742;2023-02-19T09:57:23;98262.36;;;5.02;100.00
55191;BME280;41070;50.360;18.742;2023-02-19T10:00:03;98266.98;;;4.74;100.00
55191;BME280;41070;50.360;18.742;2023-02-19T10:02:31;98274.75;;;4.57;100.00
55191;BME280;41070;50.360;18.742;2023-02-19T10:05:00;98281.59;;;4.44;100.00
55191;BME280;41070;50.360;18.742;2023-02-19T10:07:38;98288.52;;;4.35;100.00
55191;BME280;41070;50.360;18.742;2023-02-19T10:12:45;98294.52;;;4.22;100.00
55191;BME280;41070;50.360;18.742;2023-02-19T10:15:24;98297.23;;;4.19;100.00
55191;BME280;41070;50.360;18.742;2023-02-19T10:17:54;98295.52;;;4.19;100.00
55191;BME280;41070;50.360;18.742;2023-02-19T10:20:21;98298.93;;;4.22;100.00
55191;BME280;41070;50.360;18.742;2023-02-19T10:22:59;98311.24;;;4.25;100.00
55191;BME280;41070;50.360;18.742;2023-02-19T10:25:27;98310.58;;;4.30;100.00
55191;BME280;41070;50.360;18.742;2023-02-19T10:27:57;98310.73;;;4.34;100.00
55191;BME280;41070;50.360;18.742;2023-02-19T10:30:27;98312.27;;;4.38;100.00
55191;BME280;41070;50.360;18.742;2023-02-19T10:33:09;98309.73;;;4.40;100.00
55191;BME280;41070;50.360;18.742;2023-02-19T10:35:56;98307.39;;;4.40;100.00
55191;BME280;41070;50.360;18.742;2023-02-19T10:38:27;98310.52;;;4.49;100.00
55191;BME280;41070;50.360;18.742;2023-02-19T10:41:02;98314.82;;;4.57;100.00
55191;BME280;41070;50.360;18.742;2023-02-19T10:43:34;98320.73;;;4.63;100.00
55191;BME280;41070;50.360;18.742;2023-02-19T10:46:05;98327.64;;;4.63;100.00
55191;BME280;41070;50.360;18.742;2023-02-19T10:48:40;98335.37;;;4.59;99.91
55191;BME280;41070;50.360;18.742;2023-02-19T10:51:09;98341.13;;;4.56;99.53
55191;BME280;41070;50.360;18.742;2023-02-19T10:53:47;98346.05;;;4.52;99.69
55191;BME280;41070;50.360;18.742;2023-02-19T10:56:25;98348.71;;;4.50;99.58
55191;BME280;41070;50.360;18.742;2023-02-19T10:58:52;98352.02;;;4.51;99.81
55191;BME280;41070;50.360;18.742;2023-02-19T11:01:23;98354.70;;;4.50;98.90
55191;BME280;41070;50.360;18.742;2023-02-19T11:04:15;98366.80;;;4.51;99.39
55191;BME280;41070;50.360;18.742;2023-02-19T11:06:43;98364.96;;;4.51;98.96
55191;BME280;41070;50.360;18.742;2023-02-19T11:09:29;98366.79;;;4.46;98.71
55191;BME280;41070;50.360;18.742;2023-02-19T11:11:57;98375.23;;;4.42;98.73
55191;BME280;41070;50.360;18.742;2023-02-19T11:14:25;98375.94;;;4.41;98.44
55191;BME280;41070;50.360;18.742;2023-02-19T11:16:54;98376.73;;;4.41;98.50
55191;BME280;41070;50.360;18.742;2023-02-19T11:19:42;98374.70;;;4.44;98.58
55191;BME280;41070;50.360;18.742;2023-02-19T11:22:37;98379.11;;;4.41;98.25
55191;BME280;41070;50.360;18.742;2023-02-19T11:25:19;98386.27;;;4.37;97.96
55191;BME280;41070;50.360;18.742;2023-02-19T11:30:44;98394.17;;;4.28;97.63
55191;BME280;41070;50.360;18.742;2023-02-19T11:33:20;98398.45;;;4.20;97.84
55191;BME280;41070;50.360;18.742;2023-02-19T11:35:58;98398.34;;;4.21;98.19
55191;BME280;41070;50.360;18.742;2023-02-19T11:38:26;98400.38;;;4.22;98.25
55191;BME280;41070;50.360;18.742;2023-02-19T11:41:25;98410.44;;;4.22;97.96
55191;BME280;41070;50.360;18.742;2023-02-19T11:49:42;98437.45;;;4.11;98.29
55191;BME280;41070;50.360;18.742;2023-02-19T11:54:54;98448.01;;;4.01;98.50
55191;BME280;41070;50.360;18.742;2023-02-19T11:57:44;98447.08;;;4.03;98.65
55191;BME280;41070;50.360;18.742;2023-02-19T12:00:25;98459.98;;;4.02;98.21
55191;BME280;41070;50.360;18.742;2023-02-19T12:03:30;98467.96;;;3.90;97.00
55191;BME280;41070;50.360;18.742;2023-02-19T12:06:11;98468.48;;;3.75;96.85
55191;BME280;41070;50.360;18.742;2023-02-19T12:11:51;98477.27;;;3.50;96.45
55191;BME280;41070;50.360;18.742;2023-02-19T12:23:14;98485.77;;;3.24;96.62
55191;BME280;41070;50.360;18.742;2023-02-19T12:44:58;98506.67;;;3.39;91.65
55191;BME280;41070;50.360;18.742;2023-02-19T12:47:35;98514.50;;;3.42;91.36
55191;BME280;41070;50.360;18.742;2023-02-19T12:50:40;98514.23;;;3.42;91.15
55191;BME280;41070;50.360;18.742;2023-02-19T12:53:16;98517.23;;;3.43;91.08
55191;BME280;41070;50.360;18.742;2023-02-19T12:55:44;98517.48;;;3.44;90.77
55191;BME280;41070;50.360;18.742;2023-02-19T12:58:19;98518.80;;;3.44;90.48
55191;BME280;41070;50.360;18.742;2023-02-19T13:00:49;98522.21;;;3.40;89.75
55191;BME280;41070;50.360;18.742;2023-02-19T13:03:25;98525.64;;;3.35;89.60
55191;BME280;41070;50.360;18.742;2023-02-19T13:06:10;98524.10;;;3.34;90.08
55191;BME280;41070;50.360;18.742;2023-02-19T13:08:50;98534.71;;;3.36;90.12
55191;BME280;41070;50.360;18.742;2023-02-19T13:11:30;98540.23;;;3.35;89.66
55191;BME280;41070;50.360;18.742;2023-02-19T13:14:03;98545.71;;;3.36;89.59
55191;BME280;41070;50.360;18.742;2023-02-19T13:16:36;98553.95;;;3.40;89.68
55191;BME280;41070;50.360;18.742;2023-02-19T13:19:04;98554.61;;;3.44;89.11
55191;BME280;41070;50.360;18.742;2023-02-19T13:21:33;98557.66;;;3.45;88.46
55191;BME280;41070;50.360;18.742;2023-02-19T13:24:25;98564.60;;;3.47;88.41
55191;BME280;41070;50.360;18.742;2023-02-19T13:32:54;98572.30;;;3.48;85.61
55191;BME280;41070;50.360;18.742;2023-02-19T13:38:10;98572.62;;;3.43;85.08
55191;BME280;41070;50.360;18.742;2023-02-19T13:40:39;98584.91;;;3.48;85.00
55191;BME280;41070;50.360;18.742;2023-02-19T13:45:54;98581.95;;;3.58;84.47
55191;BME280;41070;50.360;18.742;2023-02-19T13:48:34;98582.77;;;3.65;85.56
55191;BME280;41070;50.360;18.742;2023-02-19T13:53:55;98587.00;;;3.70;84.71
55191;BME280;41070;50.360;18.742;2023-02-19T13:59:34;98590.37;;;3.65;84.69
55191;BME280;41070;50.360;18.742;2023-02-19T14:12:08;98597.17;;;3.66;84.62
55191;BME280;41070;50.360;18.742;2023-02-19T14:27:56;98636.21;;;3.60;84.80
55191;BME280;41070;50.360;18.742;2023-02-19T14:30:33;98644.52;;;3.56;83.98
55191;BME280;41070;50.360;18.742;2023-02-19T14:33:02;98646.52;;;3.54;84.01
55191;BME280;41070;50.360;18.742;2023-02-19T14:35:39;98647.80;;;3.52;83.36
55191;BME280;41070;50.360;18.742;2023-02-19T14:38:38;98651.88;;;3.48;82.33
55191;BME280;41070;50.360;18.742;2023-02-19T14:41:17;98653.11;;;3.44;82.28
55191;BME280;41070;50.360;18.742;2023-02-19T14:43:51;98653.21;;;3.42;82.51
55191;BME280;41070;50.360;18.742;2023-02-19T14:46:36;98656.04;;;3.41;82.55
55191;BME280;41070;50.360;18.742;2023-02-19T14:49:29;98655.42;;;3.37;81.26
55191;BME280;41070;50.360;18.742;2023-02-19T14:52:03;98663.84;;;3.33;81.04
55191;BME280;41070;50.360;18.742;2023-02-19T14:54:37;98664.41;;;3.31;80.85
55191;BME280;41070;50.360;18.742;2023-02-19T14:57:24;98665.65;;;3.30;80.97
55191;BME280;41070;50.360;18.742;2023-02-19T14:59:55;98674.61;;;3.29;80.74
55191;BME280;41070;50.360;18.742;2023-02-19T15:02:25;98673.35;;;3.25;80.88
55191;BME280;41070;50.360;18.742;2023-02-19T15:04:55;98676.71;;;3.23;80.99
55191;BME280;41070;50.360;18.742;2023-02-19T15:07:34;98682.65;;;3.20;81.09